createdAt,value
2019-02-27T00:00:34.142Z,131.20
2019-02-27T00:03:02.925Z,132.80
2019-02-27T00:05:31.654Z,127.50
2019-02-27T00:08:00.432Z,125.92
2019-02-27T00:10:29.215Z,148.02
2019-02-27T00:12:58.008Z,134.50
2019-02-27T00:15:26.823Z,138.03
2019-02-27T00:17:55.804Z,139.30
2019-02-27T00:20:24.667Z,137.68
2019-02-27T00:22:53.400Z,138.90
2019-02-27T00:25:22.154Z,139.62
2019-02-27T00:27:50.957Z,140.62
2019-02-27T00:30:19.729Z,137.88
2019-02-27T00:32:51.014Z,139.70
2019-02-27T00:35:18.993Z,120.53
2019-02-27T00:37:51.857Z,127.15
2019-02-27T00:40:18.217Z,125.20
2019-02-27T00:42:47.024Z,130.30
2019-02-27T00:45:15.788Z,135.57
2019-02-27T00:47:44.520Z,130.70
2019-02-27T00:50:13.280Z,130.52
2019-02-27T00:52:42.348Z,128.65
2019-02-27T00:55:11.144Z,131.00
2019-02-27T00:57:39.887Z,133.65
2019-02-27T01:00:14.713Z,130.20
2019-02-27T01:02:43.526Z,133.20
2019-02-27T01:05:12.449Z,125.20
2019-02-27T01:07:41.332Z,125.67
2019-02-27T01:10:13.087Z,127.75
2019-02-27T01:12:41.939Z,126.18
2019-02-27T01:15:12.139Z,129.27
2019-02-27T01:17:40.918Z,131.20
2019-02-27T01:20:12.245Z,131.97
2019-02-27T01:22:41.030Z,133.75
2019-02-27T01:25:09.885Z,135.57
2019-02-27T01:27:38.754Z,134.05
2019-02-27T01:30:11.001Z,125.25
2019-02-27T01:32:39.752Z,130.65
2019-02-27T01:35:10.185Z,126.35
2019-02-27T01:37:39.023Z,119.42
2019-02-27T01:40:17.141Z,121.95
2019-02-27T01:42:44.238Z,123.10
2019-02-27T01:45:15.289Z,127.62
2019-02-27T01:47:44.072Z,127.22
2019-02-27T01:50:24.530Z,128.53
2019-02-27T01:52:53.305Z,120.87
2019-02-27T01:55:22.664Z,118.22
2019-02-27T01:57:51.467Z,124.02
2019-02-27T02:00:23.013Z,117.17
2019-02-27T02:02:50.878Z,127.60
2019-02-27T02:05:19.904Z,125.97
2019-02-27T02:07:48.924Z,139.43
2019-02-27T02:10:18.008Z,125.30
2019-02-27T02:12:52.881Z,127.47
2019-02-27T02:15:27.917Z,134.10
2019-02-27T02:18:11.878Z,133.85
2019-02-27T02:20:50.941Z,128.87
2019-02-27T02:23:25.208Z,141.92
2019-02-27T02:26:01.352Z,149.77
2019-02-27T02:29:04.738Z,134.65
2019-02-27T02:31:57.658Z,148.22
2019-02-27T02:34:41.305Z,129.40
2019-02-27T02:37:18.886Z,144.60
2019-02-27T02:40:07.001Z,148.47
2019-02-27T02:43:03.132Z,139.77
2019-02-27T02:45:49.438Z,139.47
2019-02-27T02:48:31.020Z,141.75
2019-02-27T02:51:28.980Z,140.92
2019-02-27T02:54:05.261Z,157.20
2019-02-27T02:56:42.282Z,146.05
2019-02-27T02:59:46.958Z,162.85
2019-02-27T03:02:36.720Z,160.28
2019-02-27T03:05:37.040Z,165.88
2019-02-27T03:08:11.670Z,149.02
2019-02-27T03:10:52.334Z,153.62
2019-02-27T03:13:47.955Z,152.60
2019-02-27T03:16:41.121Z,159.90
2019-02-27T03:19:26.062Z,153.25
2019-02-27T03:22:15.620Z,149.95
2019-02-27T03:24:53.223Z,138.77
2019-02-27T03:27:30.932Z,143.32
2019-02-27T03:30:17.487Z,141.97
2019-02-27T03:33:23.063Z,144.32
2019-02-27T03:36:18.129Z,144.68
2019-02-27T03:39:07.314Z,166.22
2019-02-27T03:41:41.827Z,140.82
2019-02-27T03:44:13.730Z,141.50
2019-02-27T03:46:51.694Z,136.35
2019-02-27T03:49:45.932Z,142.50
2019-02-27T03:52:36.327Z,136.97
2019-02-27T03:55:32.859Z,125.58
2019-02-27T03:58:34.818Z,138.52
2019-02-27T04:01:09.374Z,124.72
2019-02-27T04:03:57.738Z,125.35
2019-02-27T04:06:46.081Z,126.05
2019-02-27T04:09:18.551Z,130.18
2019-02-27T04:11:45.305Z,128.87
2019-02-27T04:14:28.232Z,135.37
2019-02-27T04:16:57.090Z,123.78
2019-02-27T04:19:25.863Z,119.57
2019-02-27T04:22:00.455Z,119.28
2019-02-27T04:24:25.222Z,129.23
2019-02-27T04:26:54.084Z,129.40
2019-02-27T04:29:22.869Z,140.28
2019-02-27T04:31:51.699Z,127.72
2019-02-27T04:34:20.447Z,133.03
2019-02-27T04:36:49.206Z,114.30
2019-02-27T04:39:17.977Z,117.82
2019-02-27T04:41:46.758Z,113.77
2019-02-27T04:44:15.558Z,113.35
2019-02-27T04:46:44.321Z,260.17
2019-02-27T04:49:13.360Z,125.60
2019-02-27T04:51:42.148Z,108.15
2019-02-27T04:54:10.990Z,104.67
2019-02-27T04:56:39.791Z,100.50
2019-02-27T04:59:08.576Z,96.87
2019-02-27T05:01:37.462Z,95.80
2019-02-27T05:04:06.344Z,92.40
2019-02-27T05:06:35.076Z,98.17
2019-02-27T05:09:05.804Z,92.00
2019-02-27T05:11:34.561Z,98.30
2019-02-27T05:14:03.408Z,93.70
2019-02-27T05:16:32.190Z,106.03
2019-02-27T05:19:03.886Z,84.15
2019-02-27T05:21:31.452Z,81.63
2019-02-27T05:24:00.200Z,71.85
2019-02-27T05:26:28.978Z,79.87
2019-02-27T05:28:57.817Z,81.60
2019-02-27T05:31:26.558Z,77.03
2019-02-27T05:33:55.317Z,75.05
2019-02-27T05:36:24.077Z,71.00
2019-02-27T05:38:52.821Z,64.67
2019-02-27T05:41:21.657Z,65.28
2019-02-27T05:43:50.705Z,71.70
2019-02-27T05:46:19.484Z,67.85
2019-02-27T05:48:50.798Z,71.33
2019-02-27T05:51:18.734Z,72.92
2019-02-27T05:53:47.610Z,71.70
2019-02-27T05:56:16.543Z,77.00
2019-02-27T05:58:45.340Z,72.50
2019-02-27T06:01:14.088Z,72.00
2019-02-27T06:03:42.841Z,77.15
2019-02-27T06:06:12.376Z,82.65
2019-02-27T06:08:41.254Z,128.97
2019-02-27T06:11:10.001Z,71.10
2019-02-27T06:13:38.760Z,69.42
2019-02-27T06:16:09.156Z,74.50
2019-02-27T06:18:38.112Z,65.17
2019-02-27T06:21:06.900Z,78.00
2019-02-27T06:23:37.836Z,69.67
2019-02-27T06:26:06.214Z,74.67
2019-02-27T06:28:35.047Z,73.02
2019-02-27T06:31:03.882Z,78.75
2019-02-27T06:33:32.626Z,66.22
2019-02-27T06:36:01.449Z,72.70
2019-02-27T06:38:30.264Z,71.33
2019-02-27T06:40:59.464Z,65.78
2019-02-27T06:43:28.327Z,74.03
2019-02-27T06:45:57.209Z,80.92
2019-02-27T06:48:26.064Z,78.15
2019-02-27T06:50:54.804Z,76.42
2019-02-27T06:53:23.603Z,70.90
2019-02-27T06:55:52.377Z,77.35
2019-02-27T06:58:21.147Z,75.12
2019-02-27T07:00:49.898Z,83.75
2019-02-27T07:03:18.690Z,72.45
2019-02-27T07:05:48.293Z,68.95
2019-02-27T07:08:17.629Z,70.95
2019-02-27T07:10:46.368Z,60.70
2019-02-27T07:13:15.232Z,67.53
2019-02-27T07:15:47.909Z,64.25
2019-02-27T07:18:14.584Z,62.60
2019-02-27T07:20:43.354Z,107.47
2019-02-27T07:23:12.110Z,65.85
2019-02-27T07:25:42.170Z,62.00
2019-02-27T07:28:11.370Z,59.10
2019-02-27T07:30:42.476Z,61.53
2019-02-27T07:33:10.748Z,63.90
2019-02-27T07:35:39.492Z,53.10
2019-02-27T07:38:08.248Z,63.30
2019-02-27T07:40:37.023Z,53.45
2019-02-27T07:43:06.406Z,53.33
2019-02-27T07:45:35.211Z,54.83
2019-02-27T07:48:04.060Z,50.15
2019-02-27T07:50:32.854Z,52.17
2019-02-27T07:53:01.622Z,49.25
2019-02-27T07:55:30.358Z,45.55
2019-02-27T07:57:59.310Z,51.98
2019-02-27T08:00:28.100Z,47.35
2019-02-27T08:02:57.226Z,67.30
2019-02-27T08:05:44.583Z,51.20
2019-02-27T08:08:13.440Z,51.55
2019-02-27T08:10:42.270Z,52.48
2019-02-27T08:13:11.019Z,46.42
2019-02-27T08:15:39.858Z,49.10
2019-02-27T08:18:08.749Z,49.73
2019-02-27T08:20:37.629Z,50.35
2019-02-27T08:23:06.994Z,49.55
2019-02-27T08:25:38.496Z,46.50
2019-02-27T08:28:07.256Z,49.13
2019-02-27T08:30:36.027Z,48.30
2019-02-27T08:33:08.148Z,47.48
2019-02-27T08:35:35.319Z,44.67
2019-02-27T08:38:04.097Z,50.85
2019-02-27T08:40:32.858Z,51.88
2019-02-27T08:43:01.660Z,44.25
2019-02-27T08:45:30.139Z,52.00
2019-02-27T08:47:58.889Z,46.73
2019-02-27T08:50:29.204Z,50.03
2019-02-27T08:52:58.152Z,46.08
2019-02-27T08:55:27.001Z,50.38
2019-02-27T08:57:57.024Z,48.52
2019-02-27T09:00:31.096Z,48.53
2019-02-27T09:03:02.375Z,49.48
2019-02-27T09:05:30.171Z,50.83
2019-02-27T09:07:58.734Z,46.83
2019-02-27T09:10:30.397Z,47.83
2019-02-27T09:15:27.733Z,55.20
2019-02-27T09:17:59.101Z,53.67
2019-02-27T09:20:26.998Z,47.63
2019-02-27T09:22:55.913Z,47.20
2019-02-27T09:25:24.938Z,46.87
2019-02-27T09:27:53.670Z,50.17
2019-02-27T09:30:29.467Z,46.20
2019-02-27T09:32:56.910Z,51.03
2019-02-27T09:35:25.457Z,52.30
2019-02-27T09:37:53.910Z,45.07
2019-02-27T09:40:24.391Z,47.60
2019-02-27T09:42:53.746Z,45.73
2019-02-27T09:45:30.618Z,50.30
2019-02-27T09:48:00.860Z,50.23
2019-02-27T09:50:34.517Z,47.00
2019-02-27T09:53:04.209Z,48.50
2019-02-27T09:55:32.911Z,52.00
2019-02-27T09:58:01.692Z,44.70
2019-02-27T10:00:44.841Z,47.77
2019-02-27T10:03:13.304Z,48.77
2019-02-27T10:05:41.810Z,45.47
2019-02-27T10:08:11.645Z,48.23
2019-02-27T10:10:44.860Z,47.33
2019-02-27T10:13:10.524Z,46.80
2019-02-27T10:15:39.274Z,44.07
2019-02-27T10:18:07.837Z,38.27
2019-02-27T10:20:37.309Z,44.40
2019-02-27T10:23:06.621Z,36.93
2019-02-27T10:25:35.220Z,46.90
2019-02-27T10:28:04.816Z,44.60
2019-02-27T10:30:33.438Z,37.17
2019-02-27T10:33:03.369Z,35.03
2019-02-27T10:35:34.548Z,38.13
2019-02-27T10:38:02.660Z,35.70
2019-02-27T10:40:31.145Z,37.03
2019-02-27T10:42:59.742Z,42.50
2019-02-27T10:45:28.464Z,34.63
2019-02-27T10:47:56.944Z,35.13
2019-02-27T10:50:25.497Z,33.03
2019-02-27T10:52:53.992Z,37.17
2019-02-27T10:55:23.143Z,38.47
2019-02-27T10:57:51.739Z,41.43
2019-02-27T11:00:28.986Z,47.53
2019-02-27T11:02:57.828Z,72.67
2019-02-27T11:05:28.079Z,46.60
2019-02-27T11:07:56.603Z,35.40
2019-02-27T11:10:25.354Z,34.17
2019-02-27T11:12:53.914Z,33.80
2019-02-27T11:15:23.158Z,35.23
2019-02-27T11:17:51.684Z,35.10
2019-02-27T11:20:21.772Z,34.03
2019-02-27T11:22:50.529Z,35.70
2019-02-27T11:25:22.555Z,32.60
2019-02-27T11:27:51.797Z,34.00
2019-02-27T11:30:35.943Z,35.97
2019-02-27T11:33:01.989Z,38.43
2019-02-27T11:35:30.566Z,28.67
2019-02-27T11:37:59.135Z,37.23
2019-02-27T11:40:28.082Z,30.17
2019-02-27T11:42:56.747Z,31.80
2019-02-27T11:45:25.556Z,27.00
2019-02-27T11:47:54.067Z,33.07
2019-02-27T11:50:22.663Z,33.20
2019-02-27T11:52:51.466Z,28.07
2019-02-27T11:55:21.376Z,28.47
2019-02-27T11:57:50.040Z,27.07
2019-02-27T12:00:23.833Z,31.23
2019-02-27T12:02:52.463Z,26.77
2019-02-27T12:05:20.925Z,29.00
2019-02-27T12:07:51.293Z,31.07
2019-02-27T12:10:30.996Z,26.60
2019-02-27T12:13:01.223Z,26.00
2019-02-27T12:15:30.155Z,31.20
2019-02-27T12:18:01.478Z,23.37
2019-02-27T12:20:28.977Z,28.33
2019-02-27T12:22:57.526Z,26.83
2019-02-27T12:25:29.028Z,26.73
2019-02-27T12:27:56.752Z,27.03
2019-02-27T12:30:27.796Z,27.47
2019-02-27T12:32:57.048Z,36.00
2019-02-27T12:35:28.248Z,22.27
2019-02-27T12:37:56.762Z,29.80
2019-02-27T12:40:25.434Z,25.10
2019-02-27T12:42:54.256Z,27.27
2019-02-27T12:45:29.577Z,26.17
2019-02-27T12:47:57.895Z,24.97
2019-02-27T12:50:31.096Z,25.03
2019-02-27T12:52:59.014Z,27.90
2019-02-27T12:55:27.536Z,24.60
2019-02-27T12:57:56.040Z,26.07
2019-02-27T13:00:31.935Z,26.20
2019-02-27T13:03:00.500Z,24.50
2019-02-27T13:05:29.435Z,18.60
2019-02-27T13:07:58.037Z,28.60
2019-02-27T13:10:33.159Z,21.97
2019-02-27T13:12:59.563Z,20.63
2019-02-27T13:15:29.949Z,20.53
2019-02-27T13:17:58.616Z,20.97
2019-02-27T13:20:34.428Z,31.07
2019-02-27T13:23:05.137Z,21.97
2019-02-27T13:25:33.898Z,18.40
2019-02-27T13:28:02.376Z,18.17
2019-02-27T13:30:30.944Z,20.53
2019-02-27T13:33:01.244Z,19.27
2019-02-27T13:35:29.624Z,18.53
2019-02-27T13:37:58.123Z,17.37
2019-02-27T13:40:35.155Z,18.40
2019-02-27T13:43:01.206Z,20.33
2019-02-27T13:45:33.270Z,17.47
2019-02-27T13:48:04.978Z,20.20
2019-02-27T13:50:32.092Z,23.70
2019-02-27T13:53:00.591Z,19.67
2019-02-27T13:55:29.099Z,27.23
2019-02-27T13:57:59.769Z,22.10
2019-02-27T14:00:31.546Z,21.93
2019-02-27T14:03:00.000Z,21.67
2019-02-27T14:05:29.554Z,25.90
2019-02-27T14:07:58.769Z,24.43
2019-02-27T14:10:32.277Z,20.37
2019-02-27T14:13:00.938Z,19.40
2019-02-27T14:15:31.357Z,19.80
2019-02-27T14:18:01.303Z,22.43
2019-02-27T14:20:29.965Z,19.30
2019-02-27T14:22:58.428Z,19.33
2019-02-27T14:25:33.651Z,19.47
2019-02-27T14:28:02.183Z,20.23
2019-02-27T14:30:39.097Z,21.60
2019-02-27T14:33:07.663Z,16.17
2019-02-27T14:35:36.584Z,22.07
2019-02-27T14:38:05.443Z,20.57
2019-02-27T14:40:37.653Z,20.10
2019-02-27T14:43:04.719Z,20.30
2019-02-27T14:45:33.494Z,19.90
2019-02-27T14:48:01.976Z,20.33
2019-02-27T14:50:33.487Z,19.37
2019-02-27T14:53:01.064Z,21.77
2019-02-27T14:55:29.566Z,20.17
2019-02-27T14:57:58.049Z,19.30
2019-02-27T15:00:31.037Z,17.43
2019-02-27T15:02:59.539Z,17.90
2019-02-27T15:05:28.035Z,19.77
2019-02-27T15:07:56.570Z,22.00
2019-02-27T15:10:25.392Z,20.67
2019-02-27T15:12:55.532Z,22.43
2019-02-27T15:15:28.836Z,21.60
2019-02-27T15:17:57.602Z,23.07
2019-02-27T15:20:27.587Z,22.17
2019-02-27T15:22:56.508Z,20.10
2019-02-27T15:25:27.180Z,19.47
2019-02-27T15:27:58.377Z,24.67
2019-02-27T15:30:27.557Z,21.63
2019-02-27T15:32:56.051Z,24.40
2019-02-27T15:35:24.514Z,24.57
2019-02-27T15:37:53.119Z,20.63
2019-02-27T15:40:28.560Z,21.00
2019-02-27T15:42:54.410Z,20.80
2019-02-27T15:45:24.134Z,24.40
2019-02-27T15:47:52.788Z,20.87
2019-02-27T15:50:37.517Z,23.77
2019-02-27T15:53:06.294Z,24.87
2019-02-27T15:55:35.361Z,22.67
2019-02-27T15:58:04.225Z,20.67
2019-02-27T16:00:32.684Z,21.60
2019-02-27T16:03:01.156Z,20.50
2019-02-27T16:05:31.505Z,23.70
2019-02-27T16:08:00.385Z,23.67
2019-02-27T16:10:29.313Z,20.13
2019-02-27T16:13:01.047Z,33.50
2019-02-27T16:15:28.109Z,25.67
2019-02-27T16:17:56.665Z,22.93
2019-02-27T16:20:27.095Z,24.27
2019-02-27T16:22:55.720Z,27.67
2019-02-27T16:25:28.206Z,27.60
2019-02-27T16:27:56.693Z,36.60
2019-02-27T16:30:32.559Z,26.53
2019-02-27T16:33:00.134Z,34.50
2019-02-27T16:35:28.694Z,29.43
2019-02-27T16:37:57.965Z,34.07
2019-02-27T16:40:30.420Z,24.17
2019-02-27T16:42:58.884Z,26.80
2019-02-27T16:45:33.566Z,26.53
2019-02-27T16:48:00.657Z,27.73
2019-02-27T16:50:29.192Z,32.47
2019-02-27T16:52:57.958Z,22.00
2019-02-27T16:55:27.553Z,24.40
2019-02-27T16:57:57.682Z,32.90
2019-02-27T17:00:31.227Z,32.47
2019-02-27T17:02:59.868Z,24.40
2019-02-27T17:05:28.404Z,24.37
2019-02-27T17:08:00.278Z,25.50
2019-02-27T17:10:33.357Z,36.30
2019-02-27T17:13:02.100Z,30.23
2019-02-27T17:15:34.578Z,100.67
2019-02-27T17:18:01.636Z,207.65
2019-02-27T17:20:30.454Z,25.20
2019-02-27T17:22:59.206Z,28.17
2019-02-27T17:25:29.981Z,27.17
2019-02-27T17:27:58.588Z,27.20
2019-02-27T17:30:37.817Z,28.32
2019-02-27T17:33:05.690Z,47.00
2019-02-27T17:35:34.459Z,36.20
2019-02-27T17:38:03.345Z,26.07
2019-02-27T17:40:36.467Z,30.75
2019-02-27T17:43:02.580Z,30.27
2019-02-27T17:45:31.360Z,28.62
2019-02-27T17:48:00.167Z,26.85
2019-02-27T17:50:31.656Z,22.73
2019-02-27T17:52:59.474Z,26.35
2019-02-27T17:55:28.304Z,25.92
2019-02-27T17:57:58.512Z,26.33
2019-02-27T18:00:30.124Z,37.17
2019-02-27T18:02:58.873Z,32.78
2019-02-27T18:05:28.133Z,28.12
2019-02-27T18:07:57.091Z,31.90
2019-02-27T18:10:25.865Z,25.02
2019-02-27T18:12:54.781Z,25.43
2019-02-27T18:15:24.509Z,29.87
2019-02-27T18:17:53.510Z,161.22
2019-02-27T18:20:25.557Z,28.15
2019-02-27T18:22:52.888Z,26.52
2019-02-27T18:25:22.866Z,28.62
2019-02-27T18:27:51.640Z,24.20
2019-02-27T18:30:24.563Z,17.85
2019-02-27T18:32:53.425Z,23.57
2019-02-27T18:35:22.212Z,26.42
2019-02-27T18:37:54.371Z,20.23
2019-02-27T18:40:21.829Z,23.92
2019-02-27T18:42:55.302Z,20.12
2019-02-27T18:45:22.857Z,22.90
2019-02-27T18:47:51.716Z,25.52
2019-02-27T18:50:20.548Z,21.73
2019-02-27T18:52:49.895Z,22.90
2019-02-27T18:55:18.645Z,22.37
2019-02-27T18:57:47.664Z,23.85
2019-02-27T19:00:24.548Z,25.30
2019-02-27T19:02:58.672Z,25.48
2019-02-27T19:05:27.706Z,23.70
2019-02-27T19:07:56.505Z,23.25
2019-02-27T19:10:25.475Z,22.58
2019-02-27T19:12:54.338Z,23.38
2019-02-27T19:15:25.235Z,23.60
2019-02-27T19:17:54.302Z,28.85
2019-02-27T19:20:38.086Z,22.77
2019-02-27T19:23:09.741Z,24.25
2019-02-27T19:25:38.632Z,25.90
2019-02-27T19:28:07.524Z,28.40
2019-02-27T19:30:38.702Z,33.05
2019-02-27T19:33:07.254Z,24.12
2019-02-27T19:35:36.118Z,28.80
2019-02-27T19:38:04.906Z,23.60
2019-02-27T19:40:33.733Z,27.30
2019-02-27T19:43:04.054Z,20.00
2019-02-27T19:45:35.985Z,24.52
2019-02-27T19:48:03.371Z,25.27
2019-02-27T19:50:32.125Z,26.68
2019-02-27T19:53:05.180Z,21.40
2019-02-27T19:55:31.372Z,29.45
2019-02-27T19:58:00.240Z,22.75
2019-02-27T20:00:35.039Z,21.73
2019-02-27T20:03:01.851Z,27.05
2019-02-27T20:05:30.762Z,22.52
2019-02-27T20:07:59.811Z,20.10
2019-02-27T20:10:30.912Z,22.65
2019-02-27T20:12:59.251Z,22.85
2019-02-27T20:15:28.230Z,17.23
2019-02-27T20:17:57.184Z,23.65
2019-02-27T20:20:26.113Z,22.07
2019-02-27T20:22:55.215Z,20.80
2019-02-27T20:25:26.002Z,19.87
2019-02-27T20:27:57.846Z,20.97
2019-02-27T20:30:25.945Z,21.77
2019-02-27T20:32:54.878Z,27.85
2019-02-27T20:35:23.642Z,23.47
2019-02-27T20:37:52.508Z,21.73
2019-02-27T20:40:21.390Z,22.40
2019-02-27T20:42:54.697Z,24.75
2019-02-27T20:45:21.947Z,24.60
2019-02-27T20:47:57.620Z,23.70
2019-02-27T20:50:40.046Z,24.10
2019-02-27T20:53:10.968Z,26.02
2019-02-27T20:55:39.737Z,19.52
2019-02-27T20:58:08.531Z,19.40
2019-02-27T21:00:37.376Z,19.00
2019-02-27T21:03:06.136Z,20.05
2019-02-27T21:05:34.888Z,22.48
2019-02-27T21:08:04.018Z,19.30
2019-02-27T21:10:33.381Z,19.75
2019-02-27T21:13:02.145Z,25.48
2019-02-27T21:15:32.585Z,18.65
2019-02-27T21:18:01.635Z,21.05
2019-02-27T21:20:30.478Z,22.10
2019-02-27T21:23:00.248Z,21.60
2019-02-27T21:25:30.101Z,20.40
2019-02-27T21:27:58.876Z,18.52
2019-02-27T21:30:27.754Z,23.50
2019-02-27T21:32:56.747Z,16.65
2019-02-27T21:35:28.724Z,20.35
2019-02-27T21:37:56.056Z,23.12
2019-02-27T21:40:24.872Z,20.02
2019-02-27T21:42:53.726Z,19.55
2019-02-27T21:45:23.395Z,21.87
2019-02-27T21:47:52.917Z,19.50
2019-02-27T21:50:27.516Z,18.55
2019-02-27T21:52:56.310Z,17.62
2019-02-27T21:55:25.214Z,16.30
2019-02-27T21:57:54.244Z,18.27
2019-02-27T22:00:28.072Z,20.17
2019-02-27T22:02:57.743Z,17.02
2019-02-27T22:05:26.548Z,16.90
2019-02-27T22:07:55.445Z,15.93
2019-02-27T22:10:24.194Z,21.15
2019-02-27T22:12:53.063Z,17.10
2019-02-27T22:15:30.232Z,16.15
2019-02-27T22:17:59.018Z,20.30
2019-02-27T22:20:29.437Z,17.70
2019-02-27T22:22:58.465Z,16.67
2019-02-27T22:25:31.024Z,16.93
2019-02-27T22:27:58.445Z,15.70
2019-02-27T22:30:27.377Z,16.90
2019-02-27T22:32:56.139Z,15.80
2019-02-27T22:35:24.917Z,20.65
2019-02-27T22:37:53.822Z,20.70
2019-02-27T22:40:23.610Z,23.12
2019-02-27T22:42:52.414Z,19.50
2019-02-27T22:45:21.465Z,24.27
2019-02-27T22:47:54.002Z,20.17
2019-02-27T22:50:21.653Z,19.92
2019-02-27T22:52:54.259Z,18.37
2019-02-27T22:55:21.061Z,17.92
2019-02-27T22:57:49.855Z,20.02
2019-02-27T23:00:44.127Z,16.02
2019-02-27T23:03:12.930Z,20.75
2019-02-27T23:05:41.697Z,17.77
2019-02-27T23:08:10.474Z,22.25
2019-02-27T23:10:39.239Z,17.80
2019-02-27T23:13:12.392Z,15.65
2019-02-27T23:15:40.033Z,15.05
2019-02-27T23:18:08.874Z,14.23
2019-02-27T23:20:37.649Z,18.12
2019-02-27T23:23:06.447Z,19.65
2019-02-27T23:25:35.200Z,14.98
2019-02-27T23:28:04.031Z,18.20
2019-02-27T23:30:32.776Z,15.63
2019-02-27T23:33:02.237Z,14.85
2019-02-27T23:35:31.712Z,16.07
2019-02-27T23:38:03.227Z,16.25
2019-02-27T23:40:31.046Z,17.85
2019-02-27T23:43:03.404Z,19.37
2019-02-27T23:45:30.265Z,22.00
2019-02-27T23:47:59.247Z,15.25
2019-02-27T23:50:29.536Z,18.73
2019-02-27T23:52:58.316Z,15.78
2019-02-27T23:55:27.052Z,17.25
2019-02-27T23:57:57.806Z,18.02
